airplane image

note

electronics

Fly Music What-else

 

 

 

 

LSZB - Flugwetter Bern

[Source: ADDS]
METAR
LSZB 241720Z 28004KT 240V310 CAVOK 21/08 Q1016 NOSIG =
TAF
LSZB 241425Z 2415/2424 21005KT 9999 FEW040 BECMG 2417/2419 CAVOK =

LSZG - Flugwetter Grenchen

[Source: ADDS]
METAR
LSZG 241720Z AUTO 23005KT CAVOK 21/10 Q1016 =
TAF
LSZG 241425Z 2415/2424 25008KT CAVOK PROB40 TEMPO 2415/2424 9999 FEW060 =

LSZH - Flugwetter Zürich

[Source: ADDS]
METAR
LSZH 241720Z 31006KT CAVOK 21/10 Q1016 NOSIG =
TAF
LSZH 241725Z 2418/2524 VRB03KT CAVOK TX24/2514Z TN07/2504Z TEMPO 2510/2518 29012G25KT BECMG 2517/2519 9999 BKN050 =